Beersheba, Israel
Current Conditions -  °F | °C
As of 5:20 AM on Tuesday 21 Oct 2014 (Local Time) from LLBG Reporting Station
Clear Clear  
Wind Chill: 63°   Ceiling: Unl
Heat Index: 63°   Visibility: 6mi
Dew Point: 50°   Wind: 6mph
Humidity: 63%   Direction: 140°SE
Pressure: 29.97"   Gusts: NA
Location:  31.25°N, 34.8°E
Report Text: LLBG 210220Z 14005KT CAVOK 17/10 Q1015 NOSIG RMK SCT058
Loading
Personal Weather Stations






























Interactive Weather Map New forecast layout! Learn more

10-Day Weather Forecast

Advertisements
Track Severe Weather on mobile